createdAt,value
2022-12-05T00:01:57.718Z,29.77
2022-12-05T00:07:20.366Z,30.90
2022-12-05T00:12:42.571Z,29.90
2022-12-05T00:18:04.807Z,29.45
2022-12-05T00:23:28.096Z,31.05
2022-12-05T00:28:52.025Z,28.52
2022-12-05T00:34:16.265Z,29.10
2022-12-05T00:39:38.622Z,30.62
2022-12-05T00:45:02.944Z,30.97
2022-12-05T00:50:25.860Z,29.87
2022-12-05T00:55:49.433Z,27.32
2022-12-05T01:01:17.131Z,29.35
2022-12-05T01:06:40.774Z,29.87
2022-12-05T01:12:03.744Z,29.37
2022-12-05T01:17:25.920Z,27.13
2022-12-05T01:22:48.100Z,28.25
2022-12-05T01:28:10.826Z,25.63
2022-12-05T01:33:33.113Z,28.25
2022-12-05T01:38:56.779Z,26.60
2022-12-05T01:44:29.881Z,26.00
2022-12-05T01:49:56.145Z,25.60
2022-12-05T01:55:22.773Z,26.82
2022-12-05T02:00:46.376Z,24.90
2022-12-05T02:06:12.226Z,24.63
2022-12-05T02:11:36.160Z,26.65
2022-12-05T02:17:29.363Z,28.12
2022-12-05T02:23:05.148Z,26.02
2022-12-05T02:28:57.481Z,25.50
2022-12-05T02:34:45.117Z,27.95
2022-12-05T02:40:38.403Z,26.95
2022-12-05T02:46:04.920Z,28.73
2022-12-05T02:51:30.618Z,26.93
2022-12-05T02:57:08.198Z,27.33
2022-12-05T03:02:41.686Z,27.20
2022-12-05T03:08:08.345Z,27.80
2022-12-05T03:13:35.924Z,25.57
2022-12-05T03:19:11.858Z,26.10
2022-12-05T03:24:36.043Z,26.30
2022-12-05T03:30:17.154Z,25.87
2022-12-05T03:41:47.836Z,24.37
2022-12-05T03:47:29.968Z,26.43
2022-12-05T03:58:31.551Z,25.07
2022-12-05T04:04:04.609Z,26.73
2022-12-05T04:09:34.577Z,26.10
2022-12-05T04:15:01.118Z,23.50
2022-12-05T04:26:37.261Z,22.17
2022-12-05T04:32:06.191Z,23.20
2022-12-05T04:37:31.744Z,24.57
2022-12-05T04:42:56.828Z,22.27
2022-12-05T04:48:23.147Z,21.70
2022-12-05T04:53:47.762Z,23.40
2022-12-05T04:59:10.143Z,22.47
2022-12-05T05:04:39.443Z,21.17
2022-12-05T05:10:02.665Z,21.97
2022-12-05T05:15:25.238Z,22.23
2022-12-05T05:20:47.631Z,20.90
2022-12-05T05:26:13.790Z,22.47
2022-12-05T05:31:37.351Z,21.60
2022-12-05T05:37:01.818Z,22.10
2022-12-05T05:42:24.075Z,22.93
2022-12-05T05:47:46.939Z,22.58
2022-12-05T05:53:09.279Z,22.70
2022-12-05T05:58:31.943Z,21.67
2022-12-05T06:03:55.101Z,22.97
2022-12-05T06:09:19.818Z,24.27
2022-12-05T06:14:42.093Z,22.43
2022-12-05T06:20:04.322Z,21.93
2022-12-05T06:25:26.883Z,20.43
2022-12-05T06:30:50.929Z,22.57
2022-12-05T06:36:27.097Z,21.93
2022-12-05T06:41:49.474Z,21.48
2022-12-05T06:47:12.475Z,23.13
2022-12-05T06:52:35.326Z,22.50
2022-12-05T06:57:57.658Z,23.10
2022-12-05T07:03:19.905Z,22.20
2022-12-05T07:08:42.125Z,23.40
2022-12-05T07:14:14.648Z,22.63
2022-12-05T07:19:29.883Z,21.25
2022-12-05T07:24:52.494Z,23.77
2022-12-05T07:30:15.629Z,24.80
2022-12-05T07:35:37.807Z,24.00
2022-12-05T07:41:00.022Z,23.20
2022-12-05T07:46:23.981Z,25.77
2022-12-05T07:51:46.822Z,25.97
2022-12-05T07:57:09.063Z,23.43
2022-12-05T08:02:37.622Z,23.50
2022-12-05T08:08:00.530Z,25.83
2022-12-05T08:13:25.159Z,24.63
2022-12-05T08:18:50.792Z,21.97
2022-12-05T08:24:14.163Z,24.60
2022-12-05T08:29:40.549Z,21.57
2022-12-05T08:35:05.260Z,24.45
2022-12-05T08:40:28.614Z,23.35
2022-12-05T08:45:59.739Z,24.63
2022-12-05T08:51:29.028Z,23.20
2022-12-05T08:56:54.818Z,22.93
2022-12-05T09:02:19.509Z,24.07
2022-12-05T09:07:44.998Z,23.38
2022-12-05T09:13:09.749Z,24.47
2022-12-05T09:18:33.871Z,23.63
2022-12-05T09:23:59.157Z,23.13
2022-12-05T09:29:25.777Z,26.25
2022-12-05T09:34:50.947Z,23.60
2022-12-05T09:40:17.190Z,21.60
2022-12-05T09:45:53.727Z,23.50
2022-12-05T09:51:23.431Z,24.03
2022-12-05T09:56:48.984Z,22.87
2022-12-05T10:02:49.922Z,23.03
2022-12-05T10:08:30.991Z,22.87
2022-12-05T10:14:14.995Z,23.50
2022-12-05T10:19:48.927Z,23.13
2022-12-05T10:25:17.398Z,21.87
2022-12-05T10:30:44.241Z,22.10
2022-12-05T10:36:08.905Z,21.97
2022-12-05T10:41:33.392Z,21.87
2022-12-05T10:46:57.899Z,23.07
2022-12-05T10:52:24.361Z,22.27
2022-12-05T10:57:49.920Z,22.77
2022-12-05T11:03:17.476Z,22.15
2022-12-05T11:09:04.754Z,22.70
2022-12-05T11:14:34.274Z,23.50
2022-12-05T11:19:59.513Z,22.32
2022-12-05T11:25:39.585Z,24.12
2022-12-05T11:31:28.811Z,24.70
2022-12-05T11:37:08.736Z,22.13
2022-12-05T11:42:44.907Z,22.83
2022-12-05T11:48:21.098Z,22.97
2022-12-05T11:54:05.519Z,21.87
2022-12-05T12:00:13.211Z,22.83
2022-12-05T12:05:51.869Z,21.90
2022-12-05T12:11:29.973Z,22.20
2022-12-05T12:17:17.461Z,27.47
2022-12-05T12:22:56.687Z,22.45
2022-12-05T12:29:16.400Z,22.70
2022-12-05T12:35:10.264Z,23.45
2022-12-05T12:40:58.063Z,23.05
2022-12-05T12:46:47.657Z,23.43
2022-12-05T12:52:19.936Z,22.57
2022-12-05T12:57:52.039Z,36.28
2022-12-05T13:03:21.161Z,23.60
2022-12-05T13:08:53.905Z,24.03
2022-12-05T13:14:23.844Z,24.93
2022-12-05T13:19:58.984Z,24.20
2022-12-05T13:25:25.094Z,25.13
2022-12-05T13:36:53.828Z,25.73
2022-12-05T13:42:31.148Z,24.57
2022-12-05T13:48:27.409Z,24.97
2022-12-05T13:54:19.549Z,29.73
2022-12-05T14:00:16.226Z,25.47
2022-12-05T14:05:52.994Z,25.67
2022-12-05T14:11:21.127Z,24.83
2022-12-05T14:16:50.938Z,26.93
2022-12-05T14:22:26.779Z,26.57
2022-12-05T14:28:07.025Z,26.20
2022-12-05T14:33:32.479Z,25.00
2022-12-05T14:38:56.911Z,27.00
2022-12-05T14:44:24.903Z,27.70
2022-12-05T14:50:26.033Z,27.73
2022-12-05T14:55:52.377Z,29.70
2022-12-05T15:01:23.405Z,31.00
2022-12-05T15:06:58.060Z,30.92
2022-12-05T15:12:34.492Z,31.17
2022-12-05T15:18:21.529Z,29.83
2022-12-05T15:24:03.167Z,37.83
2022-12-05T15:29:37.868Z,31.30
2022-12-05T15:35:16.723Z,31.07
2022-12-05T15:40:42.644Z,30.80
2022-12-05T15:46:24.823Z,30.73
2022-12-05T15:51:51.898Z,31.13
2022-12-05T15:57:25.080Z,31.62
2022-12-05T16:03:04.615Z,30.90
2022-12-05T16:08:29.979Z,34.60
2022-12-05T16:14:04.055Z,31.13
2022-12-05T16:19:36.282Z,32.13
2022-12-05T16:25:04.901Z,31.63
2022-12-05T16:30:35.468Z,31.80
2022-12-05T16:35:59.880Z,32.67
2022-12-05T16:41:26.590Z,32.60
2022-12-05T16:47:00.316Z,34.70
2022-12-05T16:52:30.290Z,33.57
2022-12-05T16:57:52.517Z,32.67
2022-12-05T17:03:34.133Z,33.40
2022-12-05T17:08:42.968Z,35.88
2022-12-05T17:14:07.046Z,33.27
2022-12-05T17:19:30.976Z,33.00
2022-12-05T17:24:53.166Z,33.80
2022-12-05T17:30:15.616Z,34.33
2022-12-05T17:35:40.946Z,33.70
2022-12-05T17:41:07.063Z,34.43
2022-12-05T17:46:33.084Z,33.03
2022-12-05T17:52:21.117Z,35.27
2022-12-05T17:57:21.960Z,37.53
2022-12-05T18:02:44.765Z,33.50
2022-12-05T18:08:07.373Z,34.23
2022-12-05T18:13:30.542Z,33.98
2022-12-05T18:18:52.830Z,35.83
2022-12-05T18:24:15.026Z,35.17
2022-12-05T18:29:37.558Z,35.20
2022-12-05T18:35:01.838Z,33.47
2022-12-05T18:40:27.942Z,34.27
2022-12-05T18:45:49.264Z,44.30
2022-12-05T18:51:29.142Z,34.63
2022-12-05T18:56:53.512Z,33.77
2022-12-05T19:02:16.663Z,33.17
2022-12-05T19:07:39.303Z,32.13
2022-12-05T19:13:02.822Z,33.53
2022-12-05T19:18:25.176Z,31.42
2022-12-05T19:23:48.240Z,31.05
2022-12-05T19:29:12.029Z,32.70
2022-12-05T19:34:34.576Z,32.45
2022-12-05T19:39:57.134Z,31.97
2022-12-05T19:45:20.681Z,34.98
2022-12-05T19:50:42.906Z,35.07
2022-12-05T19:56:09.116Z,34.73
2022-12-05T20:01:39.128Z,36.00
2022-12-05T20:07:11.447Z,42.50
2022-12-05T20:12:33.907Z,36.93
2022-12-05T20:17:58.220Z,35.77
2022-12-05T20:23:23.699Z,37.60
2022-12-05T20:28:46.405Z,37.60
2022-12-05T20:34:10.036Z,36.57
2022-12-05T20:39:33.661Z,36.87
2022-12-05T20:44:55.907Z,36.30
2022-12-05T20:50:19.520Z,37.30
2022-12-05T20:55:41.735Z,37.73
2022-12-05T21:01:06.873Z,37.33
2022-12-05T21:06:39.076Z,38.38
2022-12-05T21:12:02.007Z,37.55
2022-12-05T21:17:24.253Z,40.05
2022-12-05T21:22:46.451Z,38.28
2022-12-05T21:28:08.641Z,38.50
2022-12-05T21:33:30.894Z,39.03
2022-12-05T21:38:56.226Z,39.95
2022-12-05T21:44:19.219Z,40.77
2022-12-05T21:49:42.387Z,41.93
2022-12-05T21:55:04.578Z,41.85
2022-12-05T22:00:27.895Z,41.70
2022-12-05T22:05:50.102Z,44.77
2022-12-05T22:11:24.127Z,46.07
2022-12-05T22:16:48.943Z,44.07
2022-12-05T22:22:11.238Z,45.30
2022-12-05T22:27:33.663Z,43.83
2022-12-05T22:32:57.645Z,44.63
2022-12-05T22:38:19.873Z,46.90
2022-12-05T22:43:44.789Z,45.20
2022-12-05T22:49:09.467Z,46.27
2022-12-05T22:54:31.876Z,46.53
2022-12-05T22:59:54.099Z,48.50
2022-12-05T23:05:16.496Z,49.70
2022-12-05T23:10:39.920Z,48.53
2022-12-05T23:16:02.137Z,45.67
2022-12-05T23:21:25.800Z,46.53
2022-12-05T23:26:52.022Z,46.92
2022-12-05T23:32:14.381Z,46.20
2022-12-05T23:37:36.790Z,45.77
2022-12-05T23:42:59.104Z,46.13
2022-12-05T23:48:21.451Z,45.63
2022-12-05T23:53:45.966Z,44.80
2022-12-05T23:59:09.925Z,48.58
